createdAt,value
2018-05-29T07:23:11.835Z,4.83
2018-05-29T07:25:45.744Z,4.40
2018-05-29T07:28:19.676Z,4.77
2018-05-29T07:30:53.580Z,4.90
2018-05-29T07:33:27.548Z,4.63
2018-05-29T07:36:02.224Z,4.80
2018-05-29T07:38:36.461Z,4.97
2018-05-29T07:41:15.762Z,4.27
2018-05-29T07:43:49.912Z,4.77
2018-05-29T07:46:24.780Z,4.27
2018-05-29T07:48:58.742Z,4.73
2018-05-29T07:51:32.665Z,4.50
2018-05-29T07:54:07.375Z,4.30
2018-05-29T07:56:41.279Z,4.70
2018-05-29T07:59:15.241Z,4.40
2018-05-29T08:01:49.152Z,4.43
2018-05-29T08:04:24.053Z,4.33
2018-05-29T08:06:57.961Z,4.27
2018-05-29T08:09:32.678Z,4.83
2018-05-29T08:12:07.354Z,4.20
2018-05-29T08:14:41.304Z,4.80
2018-05-29T08:17:16.947Z,4.73
2018-05-29T08:19:51.720Z,4.20
2018-05-29T08:22:29.518Z,4.60
2018-05-29T08:25:06.330Z,4.33
2018-05-29T08:27:41.191Z,4.73
2018-05-29T08:30:17.167Z,4.47
2018-05-29T08:32:51.204Z,4.63
2018-05-29T08:38:07.644Z,4.30
2018-05-29T08:40:41.749Z,4.20
2018-05-29T08:43:17.548Z,3.87
2018-05-29T08:45:56.575Z,4.40
2018-05-29T08:51:32.932Z,4.27
2018-05-29T08:54:10.671Z,4.73
2018-05-29T08:56:45.656Z,3.50
2018-05-29T08:59:27.448Z,4.20
2018-05-29T09:02:04.663Z,4.07
2018-05-29T09:04:39.791Z,4.33
2018-05-29T09:07:20.595Z,3.60
2018-05-29T09:09:54.770Z,4.00
2018-05-29T09:12:31.814Z,4.10
2018-05-29T09:15:07.524Z,4.43
2018-05-29T09:17:46.983Z,4.03
2018-05-29T09:20:22.778Z,4.00
2018-05-29T09:22:57.006Z,4.33
2018-05-29T09:25:33.921Z,3.90
2018-05-29T09:28:12.332Z,3.60
2018-05-29T09:30:52.032Z,4.17
2018-05-29T09:33:29.916Z,3.73
2018-05-29T09:36:07.874Z,4.30
2018-05-29T09:38:54.992Z,4.50
2018-05-29T09:41:29.994Z,3.87
2018-05-29T09:44:04.919Z,3.60
2018-05-29T09:46:39.832Z,3.63
2018-05-29T09:49:14.505Z,3.50
2018-05-29T09:51:49.469Z,4.03
2018-05-29T09:54:23.411Z,3.90
2018-05-29T09:56:57.361Z,4.37
2018-05-29T09:59:31.324Z,4.37
2018-05-29T10:02:05.146Z,3.97
2018-05-29T10:04:39.061Z,3.13
2018-05-29T10:07:14.027Z,2.90
2018-05-29T10:09:48.347Z,3.10
2018-05-29T10:12:23.545Z,3.27
2018-05-29T10:14:57.488Z,3.07
2018-05-29T10:17:31.401Z,3.27
2018-05-29T10:20:05.379Z,2.73
2018-05-29T10:22:40.291Z,2.90
2018-05-29T10:25:14.208Z,2.90
2018-05-29T10:27:49.133Z,2.87
2018-05-29T10:30:23.045Z,2.50
2018-05-29T10:32:57.992Z,2.30
2018-05-29T10:35:31.920Z,2.80
2018-05-29T10:38:05.879Z,3.13
2018-05-29T10:40:39.828Z,3.23
2018-05-29T10:43:13.740Z,2.90
2018-05-29T10:45:47.675Z,3.07
2018-05-29T10:48:23.630Z,2.83
2018-05-29T10:50:59.307Z,2.80
2018-05-29T10:53:53.945Z,2.90
2018-05-29T10:56:38.145Z,3.23
2018-05-29T10:59:15.027Z,2.73
2018-05-29T11:01:53.681Z,2.80
2018-05-29T11:04:29.332Z,3.10
2018-05-29T11:07:04.483Z,3.57
2018-05-29T11:09:43.023Z,3.27
2018-05-29T11:15:46.091Z,3.50
2018-05-29T11:21:18.958Z,3.03
2018-05-29T11:24:04.358Z,2.97
2018-05-29T11:40:47.078Z,2.80
2018-05-29T11:43:34.141Z,3.07
2018-05-29T11:52:01.038Z,2.73
2018-05-29T11:54:38.813Z,3.40
2018-05-29T11:57:16.745Z,2.83
2018-05-29T11:59:59.322Z,3.47
2018-05-29T12:02:36.201Z,2.90
2018-05-29T12:05:09.923Z,3.00
2018-05-29T12:07:52.028Z,3.23
2018-05-29T12:10:26.828Z,2.83
2018-05-29T12:13:01.795Z,3.10
2018-05-29T12:15:35.706Z,3.07
2018-05-29T12:18:09.660Z,3.50
2018-05-29T12:20:43.573Z,3.60
2018-05-29T12:23:18.511Z,3.07
2018-05-29T12:25:52.423Z,2.90
2018-05-29T12:28:27.327Z,3.10
2018-05-29T12:31:01.258Z,2.87
2018-05-29T12:33:35.207Z,2.73
2018-05-29T12:36:09.134Z,2.77
2018-05-29T12:38:43.850Z,2.97
2018-05-29T12:41:17.759Z,2.97
2018-05-29T12:43:51.713Z,2.83
2018-05-29T12:46:25.740Z,2.83
2018-05-29T12:48:59.775Z,2.90
2018-05-29T12:51:33.678Z,3.17
2018-05-29T12:54:07.631Z,3.30
2018-05-29T12:56:41.535Z,3.07
2018-05-29T12:59:15.488Z,3.27
2018-05-29T13:01:49.392Z,3.17
2018-05-29T13:04:23.331Z,3.10
2018-05-29T13:06:57.230Z,2.90
2018-05-29T13:09:31.176Z,3.23
2018-05-29T13:12:05.136Z,2.90
2018-05-29T13:14:39.091Z,3.30
2018-05-29T13:17:13.033Z,2.97
2018-05-29T13:19:46.993Z,3.23
2018-05-29T13:22:22.344Z,3.07
2018-05-29T13:24:57.242Z,3.13
2018-05-29T13:27:31.150Z,3.03
2018-05-29T13:30:05.455Z,3.30
2018-05-29T13:32:39.426Z,3.30
2018-05-29T13:35:14.344Z,2.70
2018-05-29T13:37:48.441Z,3.27
2018-05-29T13:40:22.393Z,2.80
2018-05-29T13:42:56.499Z,3.17
2018-05-29T13:45:30.446Z,2.60
2018-05-29T13:48:05.126Z,3.13
2018-05-29T13:50:39.074Z,3.13
2018-05-29T13:53:13.937Z,3.40
2018-05-29T13:55:48.848Z,3.37
2018-05-29T13:58:23.525Z,3.10
2018-05-29T14:00:57.145Z,3.27
2018-05-29T14:03:31.064Z,2.90
2018-05-29T14:06:05.036Z,3.17
2018-05-29T14:08:39.713Z,2.87
2018-05-29T14:11:15.402Z,2.97
2018-05-29T14:13:50.307Z,2.53
2018-05-29T14:16:24.256Z,2.70
2018-05-29T14:18:59.147Z,2.87
2018-05-29T14:21:33.126Z,2.80
2018-05-29T14:24:07.802Z,3.00
2018-05-29T14:26:42.720Z,2.77
2018-05-29T14:29:16.675Z,2.23
2018-05-29T14:31:50.790Z,2.97
2018-05-29T14:34:25.677Z,2.93
2018-05-29T14:36:59.629Z,2.63
2018-05-29T14:39:33.537Z,2.83
2018-05-29T14:42:07.482Z,2.70
2018-05-29T14:44:41.392Z,2.83
2018-05-29T14:47:15.336Z,2.73
2018-05-29T14:49:49.251Z,2.83
2018-05-29T14:52:23.224Z,2.50
2018-05-29T14:54:57.144Z,2.17
2018-05-29T14:57:31.388Z,2.50
2018-05-29T15:00:05.357Z,2.70
2018-05-29T15:02:39.312Z,2.83
2018-05-29T15:05:13.520Z,2.72
2018-05-29T15:07:47.463Z,2.70
2018-05-29T15:10:21.652Z,2.60
2018-05-29T15:12:55.889Z,2.90
2018-05-29T15:15:29.805Z,3.00
2018-05-29T15:18:04.037Z,2.37
2018-05-29T15:20:39.204Z,2.47
2018-05-29T15:23:13.443Z,2.65
2018-05-29T15:25:47.640Z,2.67
2018-05-29T15:28:22.843Z,2.40
2018-05-29T15:30:58.056Z,2.75
2018-05-29T15:33:32.293Z,2.70
2018-05-29T15:36:07.444Z,2.60
2018-05-29T15:38:41.700Z,3.25
2018-05-29T15:41:15.894Z,2.50
2018-05-29T15:43:50.145Z,2.70
2018-05-29T15:46:25.108Z,2.30
2018-05-29T15:48:59.353Z,2.80
2018-05-29T15:51:33.569Z,2.30
2018-05-29T15:54:08.796Z,2.60
2018-05-29T15:56:43.000Z,2.75
2018-05-29T15:59:17.241Z,2.47
2018-05-29T16:01:51.438Z,2.30
2018-05-29T16:04:25.671Z,2.62
2018-05-29T16:07:00.826Z,2.37
2018-05-29T16:09:35.062Z,2.58
2018-05-29T16:12:09.268Z,2.45
2018-05-29T16:14:45.254Z,2.00
2018-05-29T16:17:20.426Z,2.50
2018-05-29T16:19:54.678Z,2.58
2018-05-29T16:22:29.654Z,2.20
2018-05-29T16:25:05.655Z,2.50
2018-05-29T16:27:40.622Z,2.78
2018-05-29T16:30:15.844Z,2.53
2018-05-29T16:32:50.055Z,2.42
2018-05-29T16:35:26.223Z,2.50
2018-05-29T16:38:00.421Z,2.35
2018-05-29T16:40:35.155Z,2.90
2018-05-29T16:43:09.523Z,2.33
2018-05-29T16:45:43.778Z,2.70
2018-05-29T16:48:18.744Z,2.55
2018-05-29T16:50:53.936Z,2.45
2018-05-29T16:53:29.173Z,2.50
2018-05-29T16:56:05.459Z,2.58
2018-05-29T16:58:40.672Z,2.40
2018-05-29T17:01:15.832Z,2.33
2018-05-29T17:03:50.030Z,2.40
2018-05-29T17:06:26.009Z,2.22
2018-05-29T17:09:00.219Z,2.42
2018-05-29T17:11:34.468Z,2.37
2018-05-29T17:14:09.644Z,2.72
2018-05-29T17:16:45.633Z,2.50
2018-05-29T17:19:19.859Z,2.03
2018-05-29T17:21:54.117Z,2.75
2018-05-29T17:24:29.287Z,2.55
2018-05-29T17:27:03.519Z,2.30
2018-05-29T17:29:39.336Z,2.37
2018-05-29T17:32:14.548Z,2.35
2018-05-29T17:34:48.789Z,2.50
2018-05-29T17:37:23.483Z,2.50
2018-05-29T17:39:57.704Z,2.37
2018-05-29T17:42:31.965Z,2.50
2018-05-29T17:45:05.555Z,2.55
2018-05-29T17:47:39.961Z,2.42
2018-05-29T17:50:15.923Z,2.50
2018-05-29T17:52:50.160Z,2.17
2018-05-29T17:58:06.020Z,2.80
2018-05-29T18:00:41.004Z,2.20
2018-05-29T18:03:16.223Z,2.50
2018-05-29T18:05:50.429Z,2.60
2018-05-29T18:08:24.664Z,2.28
2018-05-29T18:10:58.883Z,2.33
2018-05-29T18:13:33.134Z,2.15
2018-05-29T18:16:07.333Z,2.92
2018-05-29T18:18:41.578Z,2.62
2018-05-29T18:21:16.552Z,2.40
2018-05-29T18:23:56.365Z,2.40
2018-05-29T18:26:31.952Z,2.53
2018-05-29T18:29:07.241Z,2.58
2018-05-29T18:31:41.887Z,2.70
2018-05-29T18:34:16.135Z,2.70
2018-05-29T18:36:51.303Z,2.55
2018-05-29T18:39:26.513Z,2.42
2018-05-29T18:42:06.348Z,2.80
2018-05-29T18:44:40.749Z,2.50
2018-05-29T18:47:16.101Z,2.62
2018-05-29T18:49:52.614Z,2.92
2018-05-29T18:52:29.038Z,2.65
2018-05-29T18:55:03.709Z,2.75
2018-05-29T18:57:39.446Z,2.42
2018-05-29T19:00:14.285Z,2.75
2018-05-29T19:02:50.717Z,2.83
2018-05-29T19:05:28.031Z,2.55
2018-05-29T19:08:02.317Z,2.75
2018-05-29T19:10:36.524Z,2.55
2018-05-29T19:13:10.982Z,2.60
2018-05-29T19:15:45.959Z,2.80
2018-05-29T19:18:21.959Z,2.83
2018-05-29T19:20:56.173Z,2.92
2018-05-29T19:23:30.407Z,2.92
2018-05-29T19:26:05.375Z,2.53
2018-05-29T19:28:39.617Z,2.60
2018-05-29T19:31:13.816Z,2.70
2018-05-29T19:33:48.067Z,2.85
2018-05-29T19:36:23.709Z,2.70
2018-05-29T19:38:57.988Z,2.90
2018-05-29T19:41:32.958Z,2.65
2018-05-29T19:44:08.151Z,2.75
2018-05-29T19:46:42.348Z,3.28
2018-05-29T19:49:16.583Z,2.90
2018-05-29T19:51:50.779Z,2.90
2018-05-29T19:54:25.047Z,2.62
2018-05-29T19:57:00.215Z,2.47
2018-05-29T19:59:35.272Z,3.03
2018-05-29T20:02:09.473Z,2.72
2018-05-29T20:04:43.708Z,2.78
2018-05-29T20:07:17.931Z,3.00
2018-05-29T20:09:53.150Z,2.53
2018-05-29T20:12:27.346Z,2.72
2018-05-29T20:15:02.344Z,2.75
2018-05-29T20:17:36.619Z,2.92
2018-05-29T20:20:11.677Z,2.78
2018-05-29T20:22:46.783Z,3.10
2018-05-29T20:28:05.493Z,3.12
2018-05-29T20:30:42.807Z,2.70
2018-05-29T20:36:14.693Z,2.60
2018-05-29T20:38:59.326Z,3.17
2018-05-29T20:41:45.385Z,3.10
2018-05-29T20:44:25.465Z,3.17
2018-05-29T20:47:00.820Z,3.67
2018-05-29T20:49:35.053Z,3.10
2018-05-29T20:52:10.268Z,3.08
2018-05-29T20:54:44.469Z,3.20
2018-05-29T20:57:18.710Z,3.28
2018-05-29T20:59:54.216Z,3.12
2018-05-29T21:02:32.138Z,2.87
2018-05-29T21:05:06.420Z,3.05
2018-05-29T21:07:40.628Z,2.83
2018-05-29T21:10:15.825Z,3.08
2018-05-29T21:12:50.884Z,3.47
2018-05-29T21:15:25.141Z,3.30
2018-05-29T21:17:59.336Z,3.28
2018-05-29T21:20:33.572Z,3.22
2018-05-29T21:23:07.771Z,3.50
2018-05-29T21:25:42.016Z,3.47
2018-05-29T21:28:16.997Z,3.62
2018-05-29T21:30:51.416Z,3.37
2018-05-29T21:33:25.608Z,3.58
2018-05-29T21:35:59.851Z,3.40
2018-05-29T21:38:42.784Z,3.47
2018-05-29T21:41:18.619Z,3.90
2018-05-29T21:43:53.942Z,3.72
2018-05-29T21:46:34.384Z,4.10
2018-05-29T21:49:11.861Z,3.87
2018-05-29T21:51:47.838Z,3.58
2018-05-29T21:54:35.527Z,3.80
2018-05-29T21:57:10.848Z,3.95
2018-05-29T21:59:45.045Z,3.70
2018-05-29T22:02:20.668Z,4.25
2018-05-29T22:04:54.865Z,4.12
2018-05-29T22:07:32.169Z,4.12
2018-05-29T22:13:06.111Z,3.60
2018-05-29T22:15:44.653Z,4.15
2018-05-29T22:18:22.389Z,3.70
2018-05-29T22:20:56.674Z,3.83
2018-05-29T22:23:34.210Z,3.95
2018-05-29T22:26:12.823Z,3.67
2018-05-29T22:28:48.015Z,4.35
2018-05-29T22:31:27.628Z,3.87
2018-05-29T22:34:04.906Z,4.18
2018-05-29T22:36:39.694Z,4.03
2018-05-29T22:39:16.854Z,3.80
2018-05-29T22:41:54.384Z,3.83
2018-05-29T22:44:28.597Z,3.72
2018-05-29T22:47:04.085Z,3.92
2018-05-29T22:49:43.496Z,4.03
2018-05-29T22:52:17.753Z,4.30
2018-05-29T22:54:53.480Z,4.65
2018-05-29T22:57:27.866Z,4.50
2018-05-29T23:00:03.730Z,4.55
2018-05-29T23:02:39.016Z,4.35
2018-05-29T23:05:18.963Z,4.53
2018-05-29T23:07:54.832Z,4.37
2018-05-29T23:10:30.855Z,4.57
2018-05-29T23:13:05.630Z,4.53
2018-05-29T23:15:39.862Z,4.53
2018-05-29T23:18:15.794Z,4.87
2018-05-29T23:20:51.002Z,4.65
2018-05-29T23:23:25.203Z,4.80
2018-05-29T23:25:59.441Z,4.72
2018-05-29T23:28:33.641Z,5.30
2018-05-29T23:31:07.879Z,4.28
2018-05-29T23:33:42.849Z,4.25
2018-05-29T23:36:17.093Z,4.40
2018-05-29T23:38:51.293Z,4.22
2018-05-29T23:41:25.519Z,4.40
2018-05-29T23:43:59.716Z,4.30
2018-05-29T23:46:33.941Z,4.70
2018-05-29T23:49:08.122Z,4.60
2018-05-29T23:51:42.361Z,4.30
2018-05-29T23:54:16.558Z,4.78
2018-05-29T23:56:51.773Z,4.20
2018-05-29T23:59:25.968Z,4.35
